sensor_id;sensor_type;location;lat;lon;timestamp;temperature;humidity
45319;DHT22;31057;48.498;32.260;2022-10-30T00:01:50;12.50;99.90
45319;DHT22;31057;48.498;32.260;2022-10-30T00:03:52;12.70;99.90
45319;DHT22;31057;48.498;32.260;2022-10-30T00:05:54;12.60;99.90
45319;DHT22;31057;48.498;32.260;2022-10-30T00:07:57;12.70;99.90
45319;DHT22;31057;48.498;32.260;2022-10-30T00:09:59;12.60;99.90
45319;DHT22;31057;48.498;32.260;2022-10-30T00:12:01;12.60;99.90
45319;DHT22;31057;48.498;32.260;2022-10-30T00:14:03;12.70;99.90
45319;DHT22;31057;48.498;32.260;2022-10-30T00:16:07;12.60;99.90
45319;DHT22;31057;48.498;32.260;2022-10-30T00:18:09;12.70;99.90
45319;DHT22;31057;48.498;32.260;2022-10-30T00:20:10;12.70;99.90
45319;DHT22;31057;48.498;32.260;2022-10-30T00:22:12;12.70;99.90
45319;DHT22;31057;48.498;32.260;2022-10-30T00:24:14;12.70;99.90
45319;DHT22;31057;48.498;32.260;2022-10-30T00:26:18;12.70;99.90
45319;DHT22;31057;48.498;32.260;2022-10-30T00:28:20;12.70;99.90
45319;DHT22;31057;48.498;32.260;2022-10-30T00:30:22;12.80;99.90
45319;DHT22;31057;48.498;32.260;2022-10-30T00:32:24;12.80;99.90
45319;DHT22;31057;48.498;32.260;2022-10-30T00:34:26;12.80;99.90
45319;DHT22;31057;48.498;32.260;2022-10-30T00:36:27;12.70;99.90
45319;DHT22;31057;48.498;32.260;2022-10-30T00:38:30;12.70;99.90
45319;DHT22;31057;48.498;32.260;2022-10-30T00:40:33;12.70;99.90
45319;DHT22;31057;48.498;32.260;2022-10-30T00:42:35;12.70;99.90
45319;DHT22;31057;48.498;32.260;2022-10-30T00:46:40;12.70;99.90
45319;DHT22;31057;48.498;32.260;2022-10-30T00:48:47;12.70;99.90
45319;DHT22;31057;48.498;32.260;2022-10-30T00:50:52;12.70;99.90
45319;DHT22;31057;48.498;32.260;2022-10-30T00:53:03;12.70;99.90
45319;DHT22;31057;48.498;32.260;2022-10-30T00:55:11;12.80;99.90
45319;DHT22;31057;48.498;32.260;2022-10-30T00:57:14;12.80;99.90
45319;DHT22;31057;48.498;32.260;2022-10-30T00:59:21;12.90;99.90
45319;DHT22;31057;48.498;32.260;2022-10-30T01:01:25;12.90;99.90
45319;DHT22;31057;48.498;32.260;2022-10-30T01:03:29;13.00;99.90
45319;DHT22;31057;48.498;32.260;2022-10-30T01:05:32;13.00;99.90
45319;DHT22;31057;48.498;32.260;2022-10-30T01:07:34;13.00;99.90
45319;DHT22;31057;48.498;32.260;2022-10-30T01:09:37;13.00;99.90
45319;DHT22;31057;48.498;32.260;2022-10-30T01:11:40;13.00;99.90
45319;DHT22;31057;48.498;32.260;2022-10-30T01:13:42;13.00;99.90
45319;DHT22;31057;48.498;32.260;2022-10-30T01:18:15;13.00;99.90
45319;DHT22;31057;48.498;32.260;2022-10-30T01:20:27;13.00;99.90
45319;DHT22;31057;48.498;32.260;2022-10-30T01:30:59;13.10;99.90
45319;DHT22;31057;48.498;32.260;2022-10-30T01:33:35;13.10;99.90
45319;DHT22;31057;48.498;32.260;2022-10-30T01:35:57;13.10;99.90
45319;DHT22;31057;48.498;32.260;2022-10-30T01:38:23;13.10;99.90
45319;DHT22;31057;48.498;32.260;2022-10-30T01:40:28;13.10;99.90
45319;DHT22;31057;48.498;32.260;2022-10-30T01:42:52;13.20;99.90
45319;DHT22;31057;48.498;32.260;2022-10-30T01:44:55;13.10;99.90
45319;DHT22;31057;48.498;32.260;2022-10-30T01:47:25;13.10;99.90
45319;DHT22;31057;48.498;32.260;2022-10-30T01:54:35;13.10;99.90
45319;DHT22;31057;48.498;32.260;2022-10-30T02:01:24;13.10;99.90
45319;DHT22;31057;48.498;32.260;2022-10-30T02:03:27;13.00;99.90
45319;DHT22;31057;48.498;32.260;2022-10-30T02:05:38;13.00;99.90
45319;DHT22;31057;48.498;32.260;2022-10-30T02:07:41;13.00;99.90
45319;DHT22;31057;48.498;32.260;2022-10-30T02:09:43;12.90;99.90
45319;DHT22;31057;48.498;32.260;2022-10-30T02:11:45;12.90;99.90
45319;DHT22;31057;48.498;32.260;2022-10-30T02:13:49;12.90;99.90
45319;DHT22;31057;48.498;32.260;2022-10-30T02:15:51;12.90;99.90
45319;DHT22;31057;48.498;32.260;2022-10-30T02:17:54;12.90;99.90
45319;DHT22;31057;48.498;32.260;2022-10-30T02:19:57;12.90;99.90
45319;DHT22;31057;48.498;32.260;2022-10-30T02:21:59;12.90;99.90
45319;DHT22;31057;48.498;32.260;2022-10-30T02:24:01;12.90;99.90
45319;DHT22;31057;48.498;32.260;2022-10-30T02:26:03;12.80;99.90
45319;DHT22;31057;48.498;32.260;2022-10-30T02:28:05;12.90;99.90
45319;DHT22;31057;48.498;32.260;2022-10-30T02:30:08;12.90;99.90
45319;DHT22;31057;48.498;32.260;2022-10-30T02:32:10;12.90;99.90
45319;DHT22;31057;48.498;32.260;2022-10-30T02:34:12;12.90;99.90
45319;DHT22;31057;48.498;32.260;2022-10-30T02:36:14;12.90;99.90
45319;DHT22;31057;48.498;32.260;2022-10-30T02:38:16;12.90;99.90
45319;DHT22;31057;48.498;32.260;2022-10-30T02:40:19;12.90;99.90
45319;DHT22;31057;48.498;32.260;2022-10-30T02:42:21;12.90;99.90
45319;DHT22;31057;48.498;32.260;2022-10-30T02:44:23;12.90;99.90
45319;DHT22;31057;48.498;32.260;2022-10-30T02:46:25;12.80;99.90
45319;DHT22;31057;48.498;32.260;2022-10-30T02:48:29;12.80;99.90
45319;DHT22;31057;48.498;32.260;2022-10-30T02:50:31;12.90;99.90
45319;DHT22;31057;48.498;32.260;2022-10-30T02:52:33;12.80;99.90
45319;DHT22;31057;48.498;32.260;2022-10-30T02:54:35;12.90;99.90
45319;DHT22;31057;48.498;32.260;2022-10-30T02:56:39;12.90;99.90
45319;DHT22;31057;48.498;32.260;2022-10-30T02:58:41;12.90;99.90
45319;DHT22;31057;48.498;32.260;2022-10-30T03:00:43;12.90;99.90
45319;DHT22;31057;48.498;32.260;2022-10-30T03:02:45;12.90;99.90
45319;DHT22;31057;48.498;32.260;2022-10-30T03:04:47;13.00;99.90
45319;DHT22;31057;48.498;32.260;2022-10-30T03:06:49;13.00;99.90
45319;DHT22;31057;48.498;32.260;2022-10-30T03:08:51;13.00;99.90
45319;DHT22;31057;48.498;32.260;2022-10-30T03:11:08;13.00;99.90
45319;DHT22;31057;48.498;32.260;2022-10-30T03:13:10;13.00;99.90
45319;DHT22;31057;48.498;32.260;2022-10-30T03:15:14;13.00;99.90
45319;DHT22;31057;48.498;32.260;2022-10-30T03:17:17;13.00;99.90
45319;DHT22;31057;48.498;32.260;2022-10-30T03:19:19;13.00;99.90
45319;DHT22;31057;48.498;32.260;2022-10-30T03:21:22;13.00;99.90
45319;DHT22;31057;48.498;32.260;2022-10-30T03:23:25;13.00;99.90
45319;DHT22;31057;48.498;32.260;2022-10-30T03:25:27;13.10;99.90
45319;DHT22;31057;48.498;32.260;2022-10-30T03:27:29;13.10;99.90
45319;DHT22;31057;48.498;32.260;2022-10-30T03:29:32;13.10;99.90
45319;DHT22;31057;48.498;32.260;2022-10-30T03:31:34;13.10;99.90
45319;DHT22;31057;48.498;32.260;2022-10-30T03:33:37;13.20;99.90
45319;DHT22;31057;48.498;32.260;2022-10-30T03:35:39;13.20;99.90
45319;DHT22;31057;48.498;32.260;2022-10-30T03:37:43;13.20;99.90
45319;DHT22;31057;48.498;32.260;2022-10-30T03:39:45;13.20;99.90
45319;DHT22;31057;48.498;32.260;2022-10-30T03:41:48;13.10;99.90
45319;DHT22;31057;48.498;32.260;2022-10-30T03:43:51;13.00;99.90
45319;DHT22;31057;48.498;32.260;2022-10-30T03:45:54;13.10;99.90
45319;DHT22;31057;48.498;32.260;2022-10-30T03:47:56;13.20;99.90
45319;DHT22;31057;48.498;32.260;2022-10-30T03:49:58;13.20;99.90
45319;DHT22;31057;48.498;32.260;2022-10-30T03:52:00;13.20;99.90
45319;DHT22;31057;48.498;32.260;2022-10-30T03:54:02;13.20;99.90
45319;DHT22;31057;48.498;32.260;2022-10-30T03:56:04;13.10;99.90
45319;DHT22;31057;48.498;32.260;2022-10-30T03:58:07;13.10;99.90
45319;DHT22;31057;48.498;32.260;2022-10-30T04:00:09;13.20;99.90
45319;DHT22;31057;48.498;32.260;2022-10-30T04:02:11;13.20;99.90
45319;DHT22;31057;48.498;32.260;2022-10-30T04:04:13;13.20;99.90
45319;DHT22;31057;48.498;32.260;2022-10-30T04:06:15;13.20;99.90
45319;DHT22;31057;48.498;32.260;2022-10-30T04:08:17;13.20;99.90
45319;DHT22;31057;48.498;32.260;2022-10-30T04:10:19;13.20;99.90
45319;DHT22;31057;48.498;32.260;2022-10-30T04:12:24;13.20;99.90
45319;DHT22;31057;48.498;32.260;2022-10-30T04:14:26;13.10;99.90
45319;DHT22;31057;48.498;32.260;2022-10-30T04:16:28;13.00;99.90
45319;DHT22;31057;48.498;32.260;2022-10-30T04:18:30;12.90;99.90
45319;DHT22;31057;48.498;32.260;2022-10-30T04:20:32;12.90;99.90
45319;DHT22;31057;48.498;32.260;2022-10-30T04:22:34;12.90;99.90
45319;DHT22;31057;48.498;32.260;2022-10-30T04:24:36;12.80;99.90
45319;DHT22;31057;48.498;32.260;2022-10-30T04:26:40;12.80;99.90
45319;DHT22;31057;48.498;32.260;2022-10-30T04:28:43;12.70;99.90
45319;DHT22;31057;48.498;32.260;2022-10-30T04:30:45;12.60;99.90
45319;DHT22;31057;48.498;32.260;2022-10-30T04:32:48;12.60;99.90
45319;DHT22;31057;48.498;32.260;2022-10-30T04:34:50;12.60;99.90
45319;DHT22;31057;48.498;32.260;2022-10-30T04:36:53;12.60;99.90
45319;DHT22;31057;48.498;32.260;2022-10-30T04:38:56;12.50;99.90
45319;DHT22;31057;48.498;32.260;2022-10-30T04:40:58;12.40;99.90
45319;DHT22;31057;48.498;32.260;2022-10-30T04:43:00;12.40;99.90
45319;DHT22;31057;48.498;32.260;2022-10-30T04:45:04;12.40;99.90
45319;DHT22;31057;48.498;32.260;2022-10-30T04:47:09;12.40;99.90
45319;DHT22;31057;48.498;32.260;2022-10-30T04:49:11;12.40;99.90
45319;DHT22;31057;48.498;32.260;2022-10-30T04:51:13;12.50;99.90
45319;DHT22;31057;48.498;32.260;2022-10-30T04:53:18;12.40;99.90
45319;DHT22;31057;48.498;32.260;2022-10-30T04:55:20;12.30;99.90
45319;DHT22;31057;48.498;32.260;2022-10-30T04:57:22;12.30;99.90
45319;DHT22;31057;48.498;32.260;2022-10-30T04:59:23;12.30;99.90
45319;DHT22;31057;48.498;32.260;2022-10-30T05:01:25;12.30;99.90
45319;DHT22;31057;48.498;32.260;2022-10-30T05:03:27;12.30;99.90
45319;DHT22;31057;48.498;32.260;2022-10-30T05:05:30;12.30;99.90
45319;DHT22;31057;48.498;32.260;2022-10-30T05:07:32;12.30;99.90
45319;DHT22;31057;48.498;32.260;2022-10-30T05:09:34;12.20;99.90
45319;DHT22;31057;48.498;32.260;2022-10-30T05:11:36;12.20;99.90
45319;DHT22;31057;48.498;32.260;2022-10-30T05:13:38;12.20;99.90
45319;DHT22;31057;48.498;32.260;2022-10-30T05:15:40;12.20;99.90
45319;DHT22;31057;48.498;32.260;2022-10-30T05:17:42;12.20;99.90
45319;DHT22;31057;48.498;32.260;2022-10-30T05:19:44;12.20;99.90
45319;DHT22;31057;48.498;32.260;2022-10-30T05:21:46;12.30;99.90
45319;DHT22;31057;48.498;32.260;2022-10-30T05:23:47;12.30;99.90
45319;DHT22;31057;48.498;32.260;2022-10-30T05:25:49;12.30;99.90
45319;DHT22;31057;48.498;32.260;2022-10-30T05:28:03;12.40;99.90
45319;DHT22;31057;48.498;32.260;2022-10-30T05:30:05;12.40;99.90
45319;DHT22;31057;48.498;32.260;2022-10-30T05:32:07;12.50;99.90
45319;DHT22;31057;48.498;32.260;2022-10-30T05:34:09;12.60;99.90
45319;DHT22;31057;48.498;32.260;2022-10-30T05:36:11;12.60;99.90
45319;DHT22;31057;48.498;32.260;2022-10-30T05:38:13;12.60;99.90
45319;DHT22;31057;48.498;32.260;2022-10-30T05:40:15;12.70;99.90
45319;DHT22;31057;48.498;32.260;2022-10-30T05:42:17;12.70;99.90
45319;DHT22;31057;48.498;32.260;2022-10-30T05:44:19;12.70;99.90
45319;DHT22;31057;48.498;32.260;2022-10-30T05:46:41;12.80;99.90
45319;DHT22;31057;48.498;32.260;2022-10-30T05:48:43;12.90;99.90
45319;DHT22;31057;48.498;32.260;2022-10-30T05:50:45;12.90;99.90
45319;DHT22;31057;48.498;32.260;2022-10-30T05:52:47;12.90;99.90
45319;DHT22;31057;48.498;32.260;2022-10-30T05:54:48;13.00;99.90
45319;DHT22;31057;48.498;32.260;2022-10-30T05:56:50;12.90;99.90
45319;DHT22;31057;48.498;32.260;2022-10-30T05:58:52;13.00;99.90
45319;DHT22;31057;48.498;32.260;2022-10-30T06:00:54;13.10;99.90
45319;DHT22;31057;48.498;32.260;2022-10-30T06:03:00;13.00;99.90
45319;DHT22;31057;48.498;32.260;2022-10-30T06:05:04;12.90;99.90
45319;DHT22;31057;48.498;32.260;2022-10-30T06:07:05;12.80;99.90
45319;DHT22;31057;48.498;32.260;2022-10-30T06:09:07;12.80;99.90
45319;DHT22;31057;48.498;32.260;2022-10-30T06:11:09;12.90;99.90
45319;DHT22;31057;48.498;32.260;2022-10-30T06:13:11;12.90;99.90
45319;DHT22;31057;48.498;32.260;2022-10-30T06:15:13;13.00;99.90
45319;DHT22;31057;48.498;32.260;2022-10-30T06:17:15;13.10;99.90
45319;DHT22;31057;48.498;32.260;2022-10-30T06:19:17;13.30;99.90
45319;DHT22;31057;48.498;32.260;2022-10-30T06:21:19;13.40;99.90
45319;DHT22;31057;48.498;32.260;2022-10-30T06:23:21;13.40;99.90
45319;DHT22;31057;48.498;32.260;2022-10-30T06:25:24;13.40;99.90
45319;DHT22;31057;48.498;32.260;2022-10-30T06:27:26;13.50;99.90
45319;DHT22;31057;48.498;32.260;2022-10-30T06:29:28;13.50;99.90
45319;DHT22;31057;48.498;32.260;2022-10-30T06:31:30;13.50;99.90
45319;DHT22;31057;48.498;32.260;2022-10-30T06:33:31;13.50;99.90
45319;DHT22;31057;48.498;32.260;2022-10-30T06:35:33;13.50;99.90
45319;DHT22;31057;48.498;32.260;2022-10-30T06:37:35;13.50;99.90
45319;DHT22;31057;48.498;32.260;2022-10-30T06:39:39;13.50;99.90
45319;DHT22;31057;48.498;32.260;2022-10-30T06:41:41;13.40;99.90
45319;DHT22;31057;48.498;32.260;2022-10-30T06:43:43;13.40;99.90
45319;DHT22;31057;48.498;32.260;2022-10-30T06:45:45;13.50;99.90
45319;DHT22;31057;48.498;32.260;2022-10-30T06:47:47;13.50;99.90
45319;DHT22;31057;48.498;32.260;2022-10-30T06:49:49;13.40;99.90
45319;DHT22;31057;48.498;32.260;2022-10-30T06:51:51;13.50;99.90
45319;DHT22;31057;48.498;32.260;2022-10-30T06:53:52;13.50;99.90
45319;DHT22;31057;48.498;32.260;2022-10-30T06:56:01;13.50;99.90
45319;DHT22;31057;48.498;32.260;2022-10-30T06:58:03;13.50;99.90
45319;DHT22;31057;48.498;32.260;2022-10-30T07:00:06;13.60;99.90
45319;DHT22;31057;48.498;32.260;2022-10-30T07:02:09;13.60;99.90
45319;DHT22;31057;48.498;32.260;2022-10-30T07:04:12;13.60;99.90
45319;DHT22;31057;48.498;32.260;2022-10-30T07:06:14;13.60;99.90
45319;DHT22;31057;48.498;32.260;2022-10-30T07:08:16;13.60;99.90
45319;DHT22;31057;48.498;32.260;2022-10-30T07:10:18;13.60;99.90
45319;DHT22;31057;48.498;32.260;2022-10-30T07:12:19;13.60;99.90
45319;DHT22;31057;48.498;32.260;2022-10-30T07:14:21;13.70;99.90
45319;DHT22;31057;48.498;32.260;2022-10-30T07:16:23;13.70;99.90
45319;DHT22;31057;48.498;32.260;2022-10-30T07:18:25;13.70;99.90
45319;DHT22;31057;48.498;32.260;2022-10-30T07:20:29;13.70;99.90
45319;DHT22;31057;48.498;32.260;2022-10-30T07:22:31;13.70;99.90
45319;DHT22;31057;48.498;32.260;2022-10-30T07:24:33;13.80;99.90
45319;DHT22;31057;48.498;32.260;2022-10-30T07:26:35;13.90;99.90
45319;DHT22;31057;48.498;32.260;2022-10-30T07:28:38;14.10;99.90
45319;DHT22;31057;48.498;32.260;2022-10-30T07:30:40;14.10;99.90
45319;DHT22;31057;48.498;32.260;2022-10-30T07:32:42;14.30;99.90
45319;DHT22;31057;48.498;32.260;2022-10-30T07:34:44;14.20;99.90
45319;DHT22;31057;48.498;32.260;2022-10-30T07:36:46;14.20;99.90
45319;DHT22;31057;48.498;32.260;2022-10-30T07:38:49;14.30;99.90
45319;DHT22;31057;48.498;32.260;2022-10-30T07:40:52;14.30;99.90
45319;DHT22;31057;48.498;32.260;2022-10-30T07:42:58;14.30;99.90
45319;DHT22;31057;48.498;32.260;2022-10-30T07:45:00;14.30;99.90
45319;DHT22;31057;48.498;32.260;2022-10-30T07:47:02;14.40;99.90
45319;DHT22;31057;48.498;32.260;2022-10-30T07:49:04;14.20;99.90
45319;DHT22;31057;48.498;32.260;2022-10-30T07:51:07;14.40;99.90
45319;DHT22;31057;48.498;32.260;2022-10-30T07:53:09;14.50;99.90
45319;DHT22;31057;48.498;32.260;2022-10-30T07:55:12;14.60;99.90
45319;DHT22;31057;48.498;32.260;2022-10-30T07:57:14;14.60;99.90
45319;DHT22;31057;48.498;32.260;2022-10-30T07:59:15;14.50;99.90
45319;DHT22;31057;48.498;32.260;2022-10-30T08:01:17;14.70;99.90
45319;DHT22;31057;48.498;32.260;2022-10-30T08:03:19;14.50;99.90
45319;DHT22;31057;48.498;32.260;2022-10-30T08:05:21;14.40;99.90
45319;DHT22;31057;48.498;32.260;2022-10-30T08:07:31;14.50;99.90
45319;DHT22;31057;48.498;32.260;2022-10-30T08:09:34;14.50;99.90
45319;DHT22;31057;48.498;32.260;2022-10-30T08:11:35;14.50;99.90
45319;DHT22;31057;48.498;32.260;2022-10-30T08:13:37;14.50;99.90
45319;DHT22;31057;48.498;32.260;2022-10-30T08:15:41;14.60;99.90
45319;DHT22;31057;48.498;32.260;2022-10-30T08:17:45;14.50;99.90
45319;DHT22;31057;48.498;32.260;2022-10-30T08:19:47;14.60;99.90
45319;DHT22;31057;48.498;32.260;2022-10-30T08:21:50;14.50;99.90
45319;DHT22;31057;48.498;32.260;2022-10-30T08:23:56;14.50;99.90
45319;DHT22;31057;48.498;32.260;2022-10-30T08:25:58;14.60;99.90
45319;DHT22;31057;48.498;32.260;2022-10-30T08:28:05;14.60;99.90
45319;DHT22;31057;48.498;32.260;2022-10-30T08:30:08;14.60;99.90
45319;DHT22;31057;48.498;32.260;2022-10-30T08:32:10;14.70;99.90
45319;DHT22;31057;48.498;32.260;2022-10-30T08:34:11;14.70;99.90
45319;DHT22;31057;48.498;32.260;2022-10-30T08:36:13;14.80;99.90
45319;DHT22;31057;48.498;32.260;2022-10-30T08:38:16;14.70;99.90
45319;DHT22;31057;48.498;32.260;2022-10-30T08:40:18;14.70;99.90
45319;DHT22;31057;48.498;32.260;2022-10-30T08:42:20;14.80;99.90
45319;DHT22;31057;48.498;32.260;2022-10-30T08:44:21;14.70;99.90
45319;DHT22;31057;48.498;32.260;2022-10-30T08:46:23;14.70;99.90
45319;DHT22;31057;48.498;32.260;2022-10-30T08:48:25;14.80;99.90
45319;DHT22;31057;48.498;32.260;2022-10-30T08:50:27;14.80;99.90
45319;DHT22;31057;48.498;32.260;2022-10-30T08:52:29;14.60;99.90
45319;DHT22;31057;48.498;32.260;2022-10-30T08:54:31;14.80;99.90
45319;DHT22;31057;48.498;32.260;2022-10-30T08:56:33;14.80;99.90
45319;DHT22;31057;48.498;32.260;2022-10-30T08:58:35;15.00;99.90
45319;DHT22;31057;48.498;32.260;2022-10-30T09:00:36;14.70;99.90
45319;DHT22;31057;48.498;32.260;2022-10-30T09:02:39;14.80;99.90
45319;DHT22;31057;48.498;32.260;2022-10-30T09:04:41;14.70;99.90
45319;DHT22;31057;48.498;32.260;2022-10-30T09:06:43;14.80;99.90
45319;DHT22;31057;48.498;32.260;2022-10-30T09:08:45;14.70;99.90
45319;DHT22;31057;48.498;32.260;2022-10-30T09:10:56;14.50;99.90
45319;DHT22;31057;48.498;32.260;2022-10-30T09:12:59;14.60;99.90
45319;DHT22;31057;48.498;32.260;2022-10-30T09:15:03;14.60;99.90
45319;DHT22;31057;48.498;32.260;2022-10-30T09:17:05;14.70;99.90
45319;DHT22;31057;48.498;32.260;2022-10-30T09:19:08;14.60;99.90
45319;DHT22;31057;48.498;32.260;2022-10-30T09:21:14;14.60;99.90
45319;DHT22;31057;48.498;32.260;2022-10-30T09:23:16;14.70;99.90
45319;DHT22;31057;48.498;32.260;2022-10-30T09:25:18;14.70;99.90
45319;DHT22;31057;48.498;32.260;2022-10-30T09:27:19;14.80;99.90
45319;DHT22;31057;48.498;32.260;2022-10-30T09:29:22;14.80;99.90
45319;DHT22;31057;48.498;32.260;2022-10-30T09:31:23;14.80;99.90
45319;DHT22;31057;48.498;32.260;2022-10-30T09:33:25;14.70;99.90
45319;DHT22;31057;48.498;32.260;2022-10-30T09:35:28;14.70;99.90
45319;DHT22;31057;48.498;32.260;2022-10-30T09:37:34;14.70;99.90
45319;DHT22;31057;48.498;32.260;2022-10-30T09:39:36;14.50;99.90
45319;DHT22;31057;48.498;32.260;2022-10-30T09:51:32;14.40;99.90
45319;DHT22;31057;48.498;32.260;2022-10-30T09:55:40;14.40;99.90
45319;DHT22;31057;48.498;32.260;2022-10-30T10:00:15;14.40;99.90
45319;DHT22;31057;48.498;32.260;2022-10-30T10:04:53;14.40;99.90
45319;DHT22;31057;48.498;32.260;2022-10-30T10:07:03;14.40;99.90
45319;DHT22;31057;48.498;32.260;2022-10-30T10:09:18;14.30;99.90
45319;DHT22;31057;48.498;32.260;2022-10-30T10:11:34;14.20;99.90
45319;DHT22;31057;48.498;32.260;2022-10-30T10:14:45;14.10;99.90
45319;DHT22;31057;48.498;32.260;2022-10-30T10:16:30;14.10;99.90
45319;DHT22;31057;48.498;32.260;2022-10-30T10:20:52;14.10;99.90
45319;DHT22;31057;48.498;32.260;2022-10-30T10:23:01;14.00;99.90
45319;DHT22;31057;48.498;32.260;2022-10-30T10:25:08;14.00;99.90
45319;DHT22;31057;48.498;32.260;2022-10-30T10:36:59;14.10;99.90
45319;DHT22;31057;48.498;32.260;2022-10-30T10:42:01;14.20;99.90
45319;DHT22;31057;48.498;32.260;2022-10-30T10:44:26;14.10;99.90
45319;DHT22;31057;48.498;32.260;2022-10-30T10:51:21;13.90;99.90
45319;DHT22;31057;48.498;32.260;2022-10-30T10:53:26;14.00;99.90
45319;DHT22;31057;48.498;32.260;2022-10-30T10:55:34;14.00;99.90
45319;DHT22;31057;48.498;32.260;2022-10-30T10:57:39;14.40;99.90
45319;DHT22;31057;48.498;32.260;2022-10-30T10:59:46;14.60;99.90
45319;DHT22;31057;48.498;32.260;2022-10-30T11:02:16;14.30;99.90
45319;DHT22;31057;48.498;32.260;2022-10-30T11:04:37;14.20;99.90
45319;DHT22;31057;48.498;32.260;2022-10-30T11:06:42;14.30;99.90
45319;DHT22;31057;48.498;32.260;2022-10-30T11:08:47;14.20;99.90
45319;DHT22;31057;48.498;32.260;2022-10-30T11:10:57;14.20;99.90
45319;DHT22;31057;48.498;32.260;2022-10-30T11:12:59;14.30;99.90
45319;DHT22;31057;48.498;32.260;2022-10-30T11:15:19;14.40;99.90
45319;DHT22;31057;48.498;32.260;2022-10-30T11:17:37;14.60;99.90
45319;DHT22;31057;48.498;32.260;2022-10-30T11:19:42;14.70;99.90
45319;DHT22;31057;48.498;32.260;2022-10-30T11:21:52;14.70;99.90
45319;DHT22;31057;48.498;32.260;2022-10-30T11:23:55;14.90;99.90
45319;DHT22;31057;48.498;32.260;2022-10-30T11:25:57;14.80;99.90
45319;DHT22;31057;48.498;32.260;2022-10-30T11:28:00;15.00;99.90
45319;DHT22;31057;48.498;32.260;2022-10-30T11:30:05;14.60;99.90
45319;DHT22;31057;48.498;32.260;2022-10-30T11:32:20;14.70;99.90
45319;DHT22;31057;48.498;32.260;2022-10-30T11:34:31;14.60;99.90
45319;DHT22;31057;48.498;32.260;2022-10-30T11:36:35;14.50;99.90
45319;DHT22;31057;48.498;32.260;2022-10-30T11:38:36;14.40;99.90
45319;DHT22;31057;48.498;32.260;2022-10-30T11:40:38;14.40;99.90
45319;DHT22;31057;48.498;32.260;2022-10-30T11:43:00;14.40;99.90
45319;DHT22;31057;48.498;32.260;2022-10-30T11:45:04;14.20;99.90
45319;DHT22;31057;48.498;32.260;2022-10-30T11:47:06;14.20;99.90
45319;DHT22;31057;48.498;32.260;2022-10-30T11:49:47;14.20;99.90
45319;DHT22;31057;48.498;32.260;2022-10-30T11:51:45;14.20;99.90
45319;DHT22;31057;48.498;32.260;2022-10-30T11:53:49;14.20;99.90
45319;DHT22;31057;48.498;32.260;2022-10-30T11:55:51;14.20;99.90
45319;DHT22;31057;48.498;32.260;2022-10-30T11:57:57;14.30;99.90
45319;DHT22;31057;48.498;32.260;2022-10-30T12:00:14;14.50;99.90
45319;DHT22;31057;48.498;32.260;2022-10-30T12:02:28;14.50;99.90
45319;DHT22;31057;48.498;32.260;2022-10-30T12:04:31;14.60;99.90
45319;DHT22;31057;48.498;32.260;2022-10-30T12:06:33;14.70;99.90
45319;DHT22;31057;48.498;32.260;2022-10-30T12:08:35;14.70;99.90
45319;DHT22;31057;48.498;32.260;2022-10-30T12:12:55;15.10;99.90
45319;DHT22;31057;48.498;32.260;2022-10-30T12:15:19;15.00;99.90
45319;DHT22;31057;48.498;32.260;2022-10-30T12:17:22;15.20;99.90
45319;DHT22;31057;48.498;32.260;2022-10-30T12:19:24;15.50;99.90
45319;DHT22;31057;48.498;32.260;2022-10-30T12:21:28;15.20;99.90
45319;DHT22;31057;48.498;32.260;2022-10-30T12:23:31;15.40;99.90
45319;DHT22;31057;48.498;32.260;2022-10-30T12:25:35;15.30;99.90
45319;DHT22;31057;48.498;32.260;2022-10-30T12:27:37;15.60;99.90
45319;DHT22;31057;48.498;32.260;2022-10-30T12:32:17;15.80;99.90
45319;DHT22;31057;48.498;32.260;2022-10-30T12:36:45;15.50;99.90
45319;DHT22;31057;48.498;32.260;2022-10-30T12:38:56;15.20;99.90
45319;DHT22;31057;48.498;32.260;2022-10-30T12:43:23;15.10;99.90
45319;DHT22;31057;48.498;32.260;2022-10-30T12:45:41;15.10;99.90
45319;DHT22;31057;48.498;32.260;2022-10-30T12:49:53;15.10;99.90
45319;DHT22;31057;48.498;32.260;2022-10-30T12:53:05;14.90;99.90
45319;DHT22;31057;48.498;32.260;2022-10-30T12:57:16;14.70;99.90
45319;DHT22;31057;48.498;32.260;2022-10-30T12:59:45;14.70;99.90
45319;DHT22;31057;48.498;32.260;2022-10-30T13:02:08;14.80;99.90
45319;DHT22;31057;48.498;32.260;2022-10-30T13:04:15;14.80;99.90
45319;DHT22;31057;48.498;32.260;2022-10-30T13:06:30;14.70;99.90
45319;DHT22;31057;48.498;32.260;2022-10-30T13:08:40;14.70;99.90
45319;DHT22;31057;48.498;32.260;2022-10-30T13:11:18;14.60;99.90
45319;DHT22;31057;48.498;32.260;2022-10-30T13:13:24;14.60;99.90
45319;DHT22;31057;48.498;32.260;2022-10-30T13:15:36;14.60;99.90
45319;DHT22;31057;48.498;32.260;2022-10-30T13:17:38;14.60;99.90
45319;DHT22;31057;48.498;32.260;2022-10-30T13:19:42;14.50;99.90
45319;DHT22;31057;48.498;32.260;2022-10-30T13:24:10;14.50;99.90
45319;DHT22;31057;48.498;32.260;2022-10-30T13:28:31;14.50;99.90
45319;DHT22;31057;48.498;32.260;2022-10-30T13:30:38;14.50;99.90
45319;DHT22;31057;48.498;32.260;2022-10-30T13:34:54;14.50;99.90
45319;DHT22;31057;48.498;32.260;2022-10-30T13:39:16;14.50;99.90
45319;DHT22;31057;48.498;32.260;2022-10-30T13:51:23;14.40;99.90
45319;DHT22;31057;48.498;32.260;2022-10-30T13:53:28;14.30;99.90
45319;DHT22;31057;48.498;32.260;2022-10-30T13:55:33;14.30;99.90
45319;DHT22;31057;48.498;32.260;2022-10-30T14:01:14;14.30;99.90
45319;DHT22;31057;48.498;32.260;2022-10-30T14:03:37;14.20;99.90
45319;DHT22;31057;48.498;32.260;2022-10-30T14:10:44;14.00;99.90
45319;DHT22;31057;48.498;32.260;2022-10-30T14:14:51;13.90;99.90
45319;DHT22;31057;48.498;32.260;2022-10-30T14:17:22;14.00;99.90
45319;DHT22;31057;48.498;32.260;2022-10-30T14:19:24;13.90;99.90
45319;DHT22;31057;48.498;32.260;2022-10-30T14:23:43;13.80;99.90
45319;DHT22;31057;48.498;32.260;2022-10-30T14:26:21;13.80;99.90
45319;DHT22;31057;48.498;32.260;2022-10-30T14:28:23;13.60;99.90
45319;DHT22;31057;48.498;32.260;2022-10-30T14:30:26;13.60;99.90
45319;DHT22;31057;48.498;32.260;2022-10-30T14:32:34;13.60;99.90
45319;DHT22;31057;48.498;32.260;2022-10-30T14:34:40;13.60;99.90
45319;DHT22;31057;48.498;32.260;2022-10-30T14:38:55;13.40;99.90
45319;DHT22;31057;48.498;32.260;2022-10-30T14:43:50;13.30;99.90
45319;DHT22;31057;48.498;32.260;2022-10-30T14:45:57;13.20;99.90
45319;DHT22;31057;48.498;32.260;2022-10-30T15:05:32;13.00;99.90